Time;durP1;ratioP1;P1;durP2;ratioP2;P2;SDS_P1;SDS_P2;PMS_P1;PMS_P2;Temp;Humidity;BMP_temperature;BMP_pressure;BME280_temperature;BME280_humidity;BME280_pressure;Samples;Min_cycle;Max_cycle;Signal;HPM_P1;HPM_P2
2022/07/21 00:00:27;;;;;;;15.05;5.22;;;20.20;99.90;;;;;;4973806;28;20042;-60
2022/07/21 00:02:55;;;;;;;12.20;5.85;;;20.10;99.90;;;;;;4973516;28;20034;-58
2022/07/21 00:05:21;;;;;;;8.98;5.40;;;19.90;99.90;;;;;;4956788;28;20418;-60
2022/07/21 00:07:47;;;;;;;11.88;5.30;;;19.90;99.90;;;;;;4956203;28;20370;-60
2022/07/21 00:10:14;;;;;;;16.13;4.93;;;19.80;99.90;;;;;;4973611;28;20042;-60
2022/07/21 00:12:40;;;;;;;13.95;6.43;;;19.80;99.90;;;;;;4973416;28;20062;-60
2022/07/21 00:15:06;;;;;;;17.95;7.60;;;19.90;99.90;;;;;;4973614;28;20053;-59
2022/07/21 00:17:33;;;;;;;17.83;8.80;;;20.40;99.90;;;;;;4972999;28;20062;-61
2022/07/21 00:19:59;;;;;;;14.38;7.82;;;21.00;99.90;;;;;;4973442;28;20014;-60
2022/07/21 00:22:25;;;;;;;19.50;8.48;;;21.40;99.90;;;;;;4955985;28;20029;-59
2022/07/21 00:24:50;;;;;;;22.48;8.73;;;21.60;99.90;;;;;;4973359;28;20070;-61
2022/07/21 00:27:16;;;;;;;26.00;8.73;;;21.70;99.90;;;;;;4973441;28;20110;-60
2022/07/21 00:29:42;;;;;;;21.33;8.60;;;21.90;99.90;;;;;;4973278;28;20089;-60
2022/07/21 00:32:07;;;;;;;24.70;9.10;;;22.00;99.90;;;;;;4973129;28;20185;-61
2022/07/21 00:34:34;;;;;;;32.55;9.35;;;22.10;99.90;;;;;;4973226;28;20023;-60
2022/07/21 00:37:00;;;;;;;36.13;9.35;;;22.00;99.90;;;;;;4973118;28;20110;-60
2022/07/21 00:39:25;;;;;;;20.42;9.77;;;22.20;99.90;;;;;;4973128;28;20105;-60
2022/07/21 00:41:51;;;;;;;41.10;10.93;;;22.30;99.90;;;;;;4973029;28;20054;-58
2022/07/21 00:44:26;;;;;;;23.10;10.45;;;22.30;99.90;;;;;;4973171;28;20037;-60
2022/07/21 00:46:52;;;;;;;33.42;10.80;;;22.40;99.90;;;;;;4972728;28;20037;-59
2022/07/21 00:49:19;;;;;;;28.77;9.95;;;22.50;99.90;;;;;;4972653;28;20034;-60
2022/07/21 00:51:45;;;;;;;42.40;10.10;;;22.50;99.90;;;;;;4972959;28;20097;-60
2022/07/21 00:54:12;;;;;;;25.60;10.45;;;22.40;99.90;;;;;;4972968;28;20050;-60
2022/07/21 00:56:39;;;;;;;27.25;10.25;;;22.40;99.90;;;;;;4972726;28;20120;-60
2022/07/21 00:59:05;;;;;;;25.77;10.57;;;22.30;99.90;;;;;;4972324;28;20086;-60
2022/07/21 01:01:30;;;;;;;22.63;9.25;;;22.20;99.90;;;;;;4972636;28;20027;-60
2022/07/21 01:03:57;;;;;;;22.80;9.43;;;22.10;99.90;;;;;;4972410;28;20054;-60
2022/07/21 01:06:25;;;;;;;22.27;8.55;;;22.10;99.90;;;;;;4972779;28;20117;-60
2022/07/21 01:08:51;;;;;;;27.75;8.80;;;22.20;99.90;;;;;;4972650;28;20142;-59
2022/07/21 01:11:20;;;;;;;23.35;8.93;;;22.20;99.90;;;;;;4972817;28;20110;-58
2022/07/21 01:13:46;;;;;;;29.17;8.57;;;22.20;99.90;;;;;;4972877;28;20385;-59
2022/07/21 01:16:12;;;;;;;19.95;7.97;;;22.20;99.90;;;;;;4972615;28;20118;-61
2022/07/21 01:18:41;;;;;;;19.50;8.27;;;22.20;99.90;;;;;;4972494;28;20039;-60
2022/07/21 01:21:34;;;;;;;29.80;9.48;;;22.20;99.80;;;;;;4955563;28;20051;-60
2022/07/21 01:24:02;;;;;;;33.50;8.07;;;22.20;99.30;;;;;;4969046;28;20069;-60
2022/07/21 01:26:28;;;;;;;25.23;8.15;;;22.20;99.80;;;;;;4972657;28;20620;-58
2022/07/21 01:28:55;;;;;;;20.88;7.72;;;22.20;99.70;;;;;;4972450;28;20027;-61
2022/07/21 01:31:21;;;;;;;13.23;7.00;;;22.20;99.40;;;;;;4972544;28;20025;-60
2022/07/21 01:33:47;;;;;;;25.30;7.60;;;22.30;99.30;;;;;;4972303;28;20027;-60
2022/07/21 01:36:13;;;;;;;15.95;7.32;;;22.20;99.20;;;;;;4972380;28;20031;-59
2022/07/21 01:41:28;;;;;;;14.68;6.72;;;22.20;99.10;;;;;;4972558;28;20517;-60
2022/07/21 01:43:54;;;;;;;16.73;7.03;;;22.20;98.70;;;;;;4972208;28;20039;-60
2022/07/21 01:46:20;;;;;;;18.30;7.72;;;22.20;98.80;;;;;;4972263;28;20504;-60
2022/07/21 01:48:46;;;;;;;20.23;6.82;;;22.20;98.60;;;;;;4972027;28;20042;-60
2022/07/21 01:51:12;;;;;;;22.10;6.65;;;22.30;98.50;;;;;;4972391;28;20034;-61
2022/07/21 01:53:38;;;;;;;19.40;6.75;;;22.20;98.70;;;;;;4972017;28;20035;-61
2022/07/21 01:56:05;;;;;;;20.77;6.72;;;22.20;98.50;;;;;;4972362;28;20045;-60
2022/07/21 01:58:31;;;;;;;14.20;6.05;;;22.20;98.30;;;;;;4972326;28;20417;-60
2022/07/21 02:00:57;;;;;;;19.40;6.53;;;22.20;98.60;;;;;;4972297;28;20093;-60
2022/07/21 02:03:22;;;;;;;12.75;6.43;;;22.20;98.40;;;;;;4972156;28;20035;-61
2022/07/21 02:05:48;;;;;;;22.85;7.70;;;22.10;98.40;;;;;;4972064;28;20374;-60
2022/07/21 02:08:14;;;;;;;20.13;5.93;;;22.10;98.50;;;;;;4972063;28;20038;-61
2022/07/21 02:10:39;;;;;;;22.23;5.72;;;22.00;98.60;;;;;;4974127;28;20454;-60
2022/07/21 02:13:05;;;;;;;12.32;5.80;;;22.00;98.40;;;;;;4975899;28;20022;-59
2022/07/21 02:15:31;;;;;;;22.90;6.68;;;22.00;98.70;;;;;;4975842;28;20054;-60
2022/07/21 02:17:58;;;;;;;10.52;5.88;;;21.90;98.60;;;;;;4975608;28;20035;-60
2022/07/21 02:20:25;;;;;;;13.55;5.80;;;21.90;98.80;;;;;;4975808;28;20029;-61
2022/07/21 02:22:51;;;;;;;13.38;5.60;;;21.90;98.70;;;;;;4958162;28;20035;-60
2022/07/21 02:25:17;;;;;;;18.58;5.55;;;21.80;98.40;;;;;;4975283;28;20046;-59
2022/07/21 02:27:43;;;;;;;15.45;5.40;;;21.80;98.50;;;;;;4975466;28;20114;-60
2022/07/21 02:30:10;;;;;;;7.47;5.45;;;21.70;99.00;;;;;;4975641;28;20674;-59
2022/07/21 02:32:36;;;;;;;24.02;5.65;;;21.60;98.80;;;;;;4975478;28;20038;-61
2022/07/21 02:35:02;;;;;;;15.93;5.03;;;21.50;98.90;;;;;;4975377;28;20023;-60
2022/07/21 02:37:28;;;;;;;7.25;5.40;;;21.50;98.90;;;;;;4975087;28;20102;-59
2022/07/21 02:39:54;;;;;;;15.82;5.72;;;21.50;99.00;;;;;;4975018;28;20495;-61
2022/07/21 02:42:20;;;;;;;11.15;5.35;;;21.40;99.20;;;;;;4975391;28;20118;-59
2022/07/21 02:44:46;;;;;;;15.95;5.38;;;21.40;99.10;;;;;;4975201;28;20027;-59
2022/07/21 02:47:11;;;;;;;11.95;4.68;;;21.40;99.40;;;;;;4975136;28;20035;-60
2022/07/21 02:49:37;;;;;;;8.82;4.65;;;21.30;99.20;;;;;;4974923;28;20110;-61
2022/07/21 02:52:03;;;;;;;13.15;4.82;;;21.30;99.20;;;;;;4975159;28;20029;-60
2022/07/21 02:54:29;;;;;;;14.93;5.10;;;21.30;99.30;;;;;;4975204;28;20023;-60
2022/07/21 02:56:55;;;;;;;9.55;4.95;;;21.20;99.40;;;;;;4957597;28;20037;-60
2022/07/21 02:59:20;;;;;;;13.20;4.88;;;21.10;99.60;;;;;;4975168;28;20027;-59
2022/07/21 03:01:47;;;;;;;13.95;4.43;;;21.10;99.30;;;;;;4974800;28;20430;-61
2022/07/21 03:04:12;;;;;;;9.57;4.65;;;21.10;99.50;;;;;;4975135;28;20510;-60
2022/07/21 03:06:39;;;;;;;9.05;4.78;;;21.10;99.20;;;;;;4974859;28;20045;-61
2022/07/21 03:09:04;;;;;;;10.65;5.03;;;21.20;98.90;;;;;;4974599;28;20035;-61
2022/07/21 03:11:30;;;;;;;10.60;4.72;;;21.30;98.80;;;;;;4974937;28;20364;-60
2022/07/21 03:13:56;;;;;;;7.90;4.50;;;21.40;98.50;;;;;;4974691;28;20073;-59
2022/07/21 03:16:22;;;;;;;10.13;4.70;;;21.30;98.70;;;;;;4974649;28;20027;-61
2022/07/21 03:18:47;;;;;;;9.20;4.40;;;21.30;98.70;;;;;;4974676;28;20058;-59
2022/07/21 03:21:13;;;;;;;9.25;4.07;;;21.30;98.90;;;;;;4974110;28;20054;-60
2022/07/21 03:23:39;;;;;;;11.02;4.78;;;21.30;98.80;;;;;;4974237;28;20034;-61
2022/07/21 03:26:05;;;;;;;6.38;4.97;;;21.20;99.10;;;;;;4974496;28;20038;-60
2022/07/21 03:28:30;;;;;;;8.52;4.45;;;21.10;99.40;;;;;;4974549;28;20775;-60
2022/07/21 03:30:56;;;;;;;7.55;4.57;;;21.00;99.50;;;;;;4974324;28;20018;-61
2022/07/21 03:33:22;;;;;;;10.80;5.25;;;20.90;99.60;;;;;;4974510;28;20058;-61
2022/07/21 03:35:48;;;;;;;12.73;5.40;;;20.90;99.40;;;;;;4974299;28;20027;-61
2022/07/21 03:38:14;;;;;;;13.38;4.50;;;20.80;99.50;;;;;;4973977;28;20046;-61
2022/07/21 03:40:39;;;;;;;12.25;4.80;;;20.70;99.90;;;;;;4974172;28;20490;-60
2022/07/21 03:43:07;;;;;;;8.65;4.97;;;20.50;99.90;;;;;;4974170;28;20027;-61
2022/07/21 03:45:35;;;;;;;11.23;4.82;;;20.40;99.90;;;;;;4974371;28;20037;-61
2022/07/21 03:48:03;;;;;;;9.27;4.97;;;20.40;99.90;;;;;;4956684;28;20139;-60
2022/07/21 03:50:29;;;;;;;19.00;5.95;;;20.30;99.90;;;;;;4973978;28;20066;-60
2022/07/21 03:52:55;;;;;;;7.05;4.88;;;20.20;99.90;;;;;;4973639;28;20114;-61
2022/07/21 03:55:22;;;;;;;7.22;4.95;;;20.00;99.90;;;;;;4974033;28;20106;-61
2022/07/21 03:57:50;;;;;;;5.47;4.55;;;20.00;99.90;;;;;;4974032;28;20062;-60
2022/07/21 04:00:26;;;;;;;9.32;5.68;;;20.10;99.90;;;;;;4973851;28;20030;-61
2022/07/21 04:02:52;;;;;;;9.55;5.70;;;20.00;99.90;;;;;;4973515;28;20086;-61
2022/07/21 04:05:19;;;;;;;13.80;5.22;;;20.00;99.90;;;;;;4973739;28;20033;-61
2022/07/21 04:07:46;;;;;;;6.97;5.15;;;20.00;99.90;;;;;;4973644;28;20027;-61
2022/07/21 04:10:15;;;;;;;7.15;5.03;;;20.10;99.90;;;;;;4973653;28;20110;-67
2022/07/21 04:12:41;;;;;;;7.75;4.82;;;20.00;99.90;;;;;;4973536;28;20046;-59
2022/07/21 04:15:08;;;;;;;13.73;5.22;;;20.00;99.90;;;;;;4974877;28;20099;-59
2022/07/21 04:17:34;;;;;;;9.43;5.50;;;20.00;99.90;;;;;;4974496;28;20065;-59
2022/07/21 04:20:01;;;;;;;13.15;5.78;;;20.00;99.90;;;;;;4974628;28;20058;-60
2022/07/21 04:32:20;;;;;;;5.85;4.70;;;20.20;99.90;;;;;;5010723;28;20044;-60
2022/07/21 04:34:46;;;;;;;10.45;5.10;;;20.30;99.90;;;;;;5073895;23;20053;-82
2022/07/21 04:37:12;;;;;;;8.52;5.13;;;20.50;99.90;;;;;;5012544;28;20646;-81
2022/07/21 04:39:37;;;;;;;8.77;5.60;;;20.60;99.90;;;;;;4991785;28;20132;-82
2022/07/21 04:42:03;;;;;;;7.82;5.13;;;20.70;99.90;;;;;;5005558;28;20119;-82
2022/07/21 04:44:29;;;;;;;6.78;4.63;;;20.90;99.90;;;;;;5007981;28;20470;-82
2022/07/21 04:46:54;;;;;;;6.22;5.00;;;21.00;99.90;;;;;;5007802;28;20026;-83
2022/07/21 04:49:20;;;;;;;10.48;5.00;;;21.10;99.90;;;;;;5009442;28;20026;-83
2022/07/21 04:51:46;;;;;;;10.98;4.53;;;21.20;99.90;;;;;;4995999;28;20018;-83
2022/07/21 04:54:13;;;;;;;6.90;4.80;;;21.30;99.90;;;;;;5011523;28;20592;-82
2022/07/21 04:56:40;;;;;;;18.30;4.97;;;21.40;99.90;;;;;;5013918;28;20037;-81
2022/07/21 04:59:06;;;;;;;7.43;4.47;;;21.50;99.90;;;;;;5013448;28;20076;-83
2022/07/21 05:01:32;;;;;;;7.75;4.05;;;21.60;99.90;;;;;;5011647;28;20034;-80
2022/07/21 05:03:57;;;;;;;6.28;4.30;;;21.80;99.90;;;;;;5012841;28;20037;-83
2022/07/21 05:06:23;;;;;;;9.15;4.32;;;21.90;99.90;;;;;;4994697;28;20030;-83
2022/07/21 05:08:49;;;;;;;11.70;4.53;;;22.00;99.90;;;;;;5012866;28;20362;-80
2022/07/21 05:11:15;;;;;;;4.47;4.07;;;22.10;99.90;;;;;;4995163;28;20457;-83
2022/07/21 05:13:40;;;;;;;5.35;3.60;;;22.20;99.90;;;;;;5013141;28;20431;-83
2022/07/21 05:16:06;;;;;;;8.40;3.97;;;22.30;99.80;;;;;;5013025;28;20030;-81
2022/07/21 05:18:32;;;;;;;6.47;4.32;;;22.40;99.90;;;;;;5012926;28;20033;-82
2022/07/21 05:20:58;;;;;;;11.73;4.72;;;22.60;99.90;;;;;;5013252;28;20065;-80
2022/07/21 05:23:23;;;;;;;10.18;3.92;;;22.60;99.60;;;;;;5013429;28;20111;-81
2022/07/21 05:25:49;;;;;;;6.60;4.55;;;22.70;99.90;;;;;;5012947;28;20509;-81
2022/07/21 05:28:15;;;;;;;12.07;4.32;;;22.80;99.60;;;;;;5012102;28;20030;-82
2022/07/21 05:30:40;;;;;;;7.50;4.25;;;22.90;98.90;;;;;;4994153;28;20025;-82
2022/07/21 05:33:06;;;;;;;5.07;3.97;;;23.00;98.70;;;;;;5012459;28;20045;-82
2022/07/21 05:35:32;;;;;;;9.10;4.35;;;23.00;97.80;;;;;;5013640;28;20030;-83
2022/07/21 05:37:57;;;;;;;5.50;4.32;;;23.00;98.30;;;;;;5013356;28;20022;-82
2022/07/21 05:40:23;;;;;;;11.30;4.13;;;23.10;99.10;;;;;;5013118;28;20030;-84
2022/07/21 05:42:49;;;;;;;4.53;3.83;;;23.20;98.70;;;;;;5010382;28;20033;-81
2022/07/21 05:45:15;;;;;;;12.07;4.45;;;23.30;97.40;;;;;;5012175;28;20108;-81
2022/07/21 05:47:41;;;;;;;7.50;4.90;;;23.30;97.10;;;;;;4996665;28;20393;-81
2022/07/21 05:50:07;;;;;;;7.03;3.72;;;23.30;97.40;;;;;;5014633;28;20025;-82
2022/07/21 05:52:33;;;;;;;13.55;4.10;;;23.40;97.40;;;;;;5014250;28;20068;-80
2022/07/21 05:54:59;;;;;;;7.45;4.18;;;23.40;97.30;;;;;;5014571;28;20022;-83
2022/07/21 05:57:24;;;;;;;6.78;4.20;;;23.50;96.80;;;;;;5014228;28;20061;-82
2022/07/21 05:59:50;;;;;;;10.05;3.83;;;23.50;96.80;;;;;;5014172;28;20036;-82
2022/07/21 06:02:16;;;;;;;8.35;3.92;;;23.50;96.90;;;;;;4996526;28;20527;-82
2022/07/21 06:04:41;;;;;;;7.75;4.35;;;23.60;96.50;;;;;;5015295;28;20053;-83
2022/07/21 06:07:07;;;;;;;8.98;3.80;;;23.60;96.60;;;;;;5014371;28;20109;-83
2022/07/21 06:09:33;;;;;;;5.18;3.60;;;23.60;96.40;;;;;;5014225;28;20018;-83
2022/07/21 06:11:59;;;;;;;7.45;3.70;;;23.60;96.60;;;;;;5013801;28;20077;-81
2022/07/21 06:14:25;;;;;;;9.32;4.40;;;23.80;97.30;;;;;;5013506;28;20028;-81
2022/07/21 06:16:51;;;;;;;9.75;4.18;;;23.90;96.30;;;;;;5011015;28;20026;-84
2022/07/21 06:19:17;;;;;;;8.45;4.55;;;24.00;96.50;;;;;;5014341;28;20469;-83
2022/07/21 06:21:42;;;;;;;5.53;4.47;;;24.00;96.30;;;;;;5014784;28;20661;-82
2022/07/21 06:24:08;;;;;;;11.60;3.88;;;24.20;96.60;;;;;;4996230;28;20147;-82
2022/07/21 06:26:34;;;;;;;7.70;3.70;;;24.30;97.40;;;;;;5013770;28;20478;-81
2022/07/21 06:29:00;;;;;;;8.73;3.67;;;24.20;95.50;;;;;;4997981;28;20045;-80
2022/07/21 06:31:26;;;;;;;7.28;4.30;;;24.30;96.70;;;;;;4987386;28;20033;-83
2022/07/21 06:33:52;;;;;;;9.13;3.80;;;24.40;97.80;;;;;;4993499;28;20038;-80
2022/07/21 06:36:18;;;;;;;5.30;4.18;;;24.50;96.20;;;;;;4987457;28;20089;-82
2022/07/21 06:38:45;;;;;;;5.68;4.07;;;24.50;96.40;;;;;;4986778;28;20048;-80
2022/07/21 06:41:11;;;;;;;5.30;3.97;;;24.40;95.40;;;;;;4975370;28;20038;-84
2022/07/21 06:43:37;;;;;;;9.73;3.95;;;24.60;95.20;;;;;;4995408;28;20042;-81
2022/07/21 06:46:03;;;;;;;9.80;4.65;;;24.60;94.80;;;;;;4996554;28;20045;-83
2022/07/21 06:48:28;;;;;;;7.80;4.78;;;24.60;95.10;;;;;;4994240;28;20026;-84
2022/07/21 06:50:55;;;;;;;5.35;3.65;;;24.70;94.90;;;;;;4989364;28;20033;-81
2022/07/21 06:53:21;;;;;;;4.93;3.83;;;24.80;95.30;;;;;;4982283;28;20117;-82
2022/07/21 06:55:49;;;;;;;10.88;4.50;;;24.90;94.90;;;;;;4986525;28;20035;-81
2022/07/21 06:58:17;;;;;;;7.55;4.18;;;25.10;94.80;;;;;;4975341;28;20057;-81
2022/07/21 07:00:44;;;;;;;5.28;3.88;;;25.10;94.30;;;;;;4982808;28;20084;-81
2022/07/21 07:03:10;;;;;;;7.80;4.05;;;25.10;94.30;;;;;;4996573;28;20050;-81
2022/07/21 07:05:36;;;;;;;6.20;4.18;;;25.20;94.70;;;;;;4995969;28;20023;-84
2022/07/21 07:08:03;;;;;;;5.63;4.43;;;25.30;94.80;;;;;;4993377;28;20046;-84
2022/07/21 07:10:29;;;;;;;8.70;4.20;;;25.40;95.30;;;;;;4995535;28;20025;-82
2022/07/21 07:12:55;;;;;;;5.63;4.10;;;25.60;93.80;;;;;;4997882;28;20105;-81
2022/07/21 07:15:22;;;;;;;6.35;4.32;;;25.50;95.50;;;;;;4989317;28;20027;-83
2022/07/21 07:17:48;;;;;;;7.68;4.38;;;25.70;94.00;;;;;;4990784;28;20030;-83
2022/07/21 07:20:14;;;;;;;9.40;4.40;;;25.70;93.40;;;;;;5012397;28;20022;-82
2022/07/21 07:22:39;;;;;;;6.63;4.80;;;25.70;92.90;;;;;;5012839;28;20022;-82
2022/07/21 07:25:06;;;;;;;10.98;7.82;;;25.80;92.90;;;;;;4994518;28;20030;-83
2022/07/21 07:27:33;;;;;;;6.50;4.30;;;25.60;92.70;;;;;;5012656;28;20463;-83
2022/07/21 07:29:58;;;;;;;4.82;3.90;;;25.90;93.00;;;;;;5012800;28;20025;-82
2022/07/21 07:32:24;;;;;;;10.98;4.43;;;26.10;93.80;;;;;;5013191;28;20179;-82
2022/07/21 07:34:49;;;;;;;4.70;3.90;;;26.00;93.10;;;;;;5014707;28;20038;-81
2022/07/21 07:37:15;;;;;;;6.93;4.60;;;25.90;92.10;;;;;;5015491;28;20029;-83
2022/07/21 07:39:42;;;;;;;5.93;3.60;;;26.10;91.80;;;;;;5014442;28;20405;-83
2022/07/21 07:42:07;;;;;;;9.07;3.80;;;26.10;92.30;;;;;;5015106;28;20025;-81
2022/07/21 07:44:34;;;;;;;7.43;4.45;;;26.10;91.20;;;;;;5015030;28;20033;-83
2022/07/21 07:47:03;;;;;;;5.10;4.60;;;26.10;90.70;;;;;;4994674;28;20375;-84
2022/07/21 07:49:29;;;;;;;4.35;3.58;;;26.20;90.80;;;;;;5012203;28;20473;-81
2022/07/21 07:51:56;;;;;;;6.13;4.70;;;26.20;91.10;;;;;;4994346;28;20233;-84
2022/07/21 07:54:22;;;;;;;5.20;4.43;;;26.30;90.70;;;;;;5011931;28;20113;-81
2022/07/21 07:56:47;;;;;;;15.48;4.63;;;26.20;90.70;;;;;;5012335;28;20109;-81
2022/07/21 07:59:13;;;;;;;5.40;4.13;;;26.30;90.80;;;;;;4994586;28;20101;-81
2022/07/21 08:01:39;;;;;;;7.05;4.80;;;26.50;91.70;;;;;;5012185;28;20076;-82
2022/07/21 08:04:04;;;;;;;6.85;4.05;;;26.70;91.10;;;;;;5011974;28;20481;-81
2022/07/21 08:06:30;;;;;;;11.60;4.40;;;26.80;91.00;;;;;;4993938;28;20030;-84
2022/07/21 08:08:56;;;;;;;9.18;4.80;;;26.70;90.50;;;;;;4993955;28;20029;-82
2022/07/21 08:11:22;;;;;;;5.93;5.35;;;26.50;90.90;;;;;;5012052;28;20026;-83
2022/07/21 08:13:47;;;;;;;5.82;5.32;;;26.60;92.80;;;;;;5011878;28;20632;-84
2022/07/21 08:16:15;;;;;;;7.45;5.03;;;26.70;90.90;;;;;;5012185;28;20033;-83
2022/07/21 08:18:41;;;;;;;10.55;4.90;;;26.60;92.10;;;;;;5011712;28;20101;-82
2022/07/21 08:21:07;;;;;;;9.63;5.07;;;26.50;90.80;;;;;;5010440;28;20060;-83
2022/07/21 08:23:33;;;;;;;6.65;5.43;;;26.60;91.80;;;;;;5011295;28;20037;-81
2022/07/21 08:25:59;;;;;;;6.38;5.05;;;26.50;91.40;;;;;;5011457;28;20045;-80
2022/07/21 08:28:24;;;;;;;7.85;5.68;;;26.60;91.20;;;;;;5011489;28;20072;-82
2022/07/21 08:30:51;;;;;;;8.52;5.13;;;26.60;90.90;;;;;;5011072;28;20022;-82
2022/07/21 08:33:17;;;;;;;8.43;5.63;;;26.80;90.70;;;;;;4993762;28;20497;-82
2022/07/21 08:35:42;;;;;;;8.48;5.88;;;26.70;90.60;;;;;;5011341;28;20049;-83
2022/07/21 08:38:11;;;;;;;8.98;6.85;;;26.80;90.90;;;;;;5010429;28;20030;-82
2022/07/21 08:40:46;;;;;;;13.82;6.15;;;26.80;90.60;;;;;;5011268;28;20022;-82
2022/07/21 08:43:14;;;;;;;8.45;4.90;;;26.70;90.80;;;;;;5010993;28;20084;-81
2022/07/21 08:45:40;;;;;;;7.97;5.90;;;26.90;90.50;;;;;;5011275;28;20385;-83
2022/07/21 08:48:07;;;;;;;8.50;5.53;;;27.00;91.40;;;;;;4993257;28;20052;-81
2022/07/21 08:50:35;;;;;;;5.85;5.07;;;27.30;91.60;;;;;;5011021;28;20026;-83
2022/07/21 08:53:01;;;;;;;8.77;5.45;;;27.50;90.60;;;;;;5011515;28;20493;-83
2022/07/21 08:55:32;;;;;;;17.33;5.72;;;27.20;90.50;;;;;;4993355;28;20030;-83
2022/07/21 08:57:58;;;;;;;19.88;5.80;;;27.20;91.10;;;;;;5011151;28;20271;-82
2022/07/21 09:00:24;;;;;;;7.28;5.70;;;27.30;91.50;;;;;;4993403;28;20053;-84
2022/07/21 09:03:16;;;;;;;9.65;6.53;;;27.80;90.40;;;;;;5010937;28;20389;-82
2022/07/21 09:05:57;;;;;;;9.68;5.95;;;27.80;90.10;;;;;;5010834;28;20105;-83
2022/07/21 09:08:30;;;;;;;6.15;5.53;;;27.90;90.50;;;;;;5011149;28;20025;-81
2022/07/21 09:11:11;;;;;;;10.63;6.88;;;28.10;90.10;;;;;;5011157;28;20508;-83
2022/07/21 09:13:38;;;;;;;22.05;6.60;;;27.60;90.40;;;;;;5010728;28;20120;-83
2022/07/21 09:16:04;;;;;;;10.60;6.15;;;27.90;89.60;;;;;;5011040;28;20071;-83
2022/07/21 09:18:30;;;;;;;8.45;5.53;;;28.00;91.00;;;;;;4993208;28;20091;-82
2022/07/21 09:20:57;;;;;;;10.25;5.85;;;28.20;90.40;;;;;;5010383;28;20026;-81
2022/07/21 09:23:23;;;;;;;5.93;5.32;;;28.40;90.10;;;;;;5011052;28;20018;-81
2022/07/21 09:25:51;;;;;;;11.35;6.22;;;28.40;88.70;;;;;;5010574;28;20053;-84
2022/07/21 09:28:20;;;;;;;6.88;5.95;;;28.60;87.70;;;;;;5010466;28;20168;-83
2022/07/21 09:31:01;;;;;;;7.03;5.65;;;28.50;87.90;;;;;;5010472;28;20452;-82
2022/07/21 09:33:38;;;;;;;17.15;7.13;;;28.70;88.80;;;;;;5010599;28;20533;-83
2022/07/21 09:36:18;;;;;;;16.20;6.72;;;28.80;89.50;;;;;;5010411;28;20378;-83
2022/07/21 09:38:52;;;;;;;10.18;6.60;;;28.90;89.80;;;;;;5010525;28;20021;-80
2022/07/21 09:41:20;;;;;;;12.52;7.38;;;29.00;86.40;;;;;;5010905;28;20472;-83
2022/07/21 09:43:48;;;;;;;11.68;7.25;;;28.80;87.30;;;;;;5010402;28;20033;-82
2022/07/21 09:46:19;;;;;;;10.02;7.60;;;28.40;87.90;;;;;;5010634;28;20413;-82
2022/07/21 09:48:47;;;;;;;10.80;7.55;;;28.40;89.60;;;;;;4991045;28;20026;-85
2022/07/21 09:51:32;;;;;;;13.45;7.40;;;28.70;88.40;;;;;;5013450;28;20559;-81
2022/07/21 09:54:02;;;;;;;10.02;8.60;;;28.80;88.60;;;;;;5011869;28;20382;-81
2022/07/21 09:56:38;;;;;;;11.05;7.70;;;28.30;88.70;;;;;;5009875;28;20041;-82
2022/07/21 09:59:06;;;;;;;10.45;7.57;;;28.30;89.00;;;;;;5010415;28;20026;-84
2022/07/21 10:01:32;;;;;;;11.27;7.60;;;28.40;87.80;;;;;;5009367;28;20030;-82
2022/07/21 10:03:59;;;;;;;10.68;7.03;;;28.50;89.70;;;;;;5010050;28;20488;-84
2022/07/21 10:06:31;;;;;;;14.57;8.35;;;29.30;90.70;;;;;;5010248;28;20496;-82
2022/07/21 10:08:58;;;;;;;13.70;7.38;;;29.30;87.60;;;;;;5010436;28;20049;-81
2022/07/21 10:11:25;;;;;;;15.30;7.07;;;29.50;87.20;;;;;;5009549;28;20269;-82
2022/07/21 10:13:51;;;;;;;10.45;7.18;;;29.60;87.60;;;;;;4992467;28;20674;-85
2022/07/21 10:16:17;;;;;;;9.75;7.65;;;29.20;86.50;;;;;;5009585;28;20366;-82
2022/07/21 10:19:15;;;;;;;19.67;9.55;;;29.30;85.70;;;;;;4992525;28;20083;-80
2022/07/21 10:22:12;;;;;;;10.63;8.00;;;28.90;87.30;;;;;;5010428;28;20465;-85
2022/07/21 10:24:38;;;;;;;8.80;7.18;;;29.00;87.40;;;;;;5010351;28;20026;-83
2022/07/21 10:27:08;;;;;;;8.63;7.35;;;29.10;87.00;;;;;;5009989;28;20406;-82
2022/07/21 10:29:52;;;;;;;13.15;7.22;;;28.50;86.70;;;;;;4992571;28;20026;-83
2022/07/21 10:32:21;;;;;;;14.48;7.45;;;28.70;85.30;;;;;;5011483;28;20033;-84
2022/07/21 10:34:48;;;;;;;46.45;10.32;;;28.20;85.30;;;;;;5013178;28;20053;-84
2022/07/21 10:37:39;;;;;;;43.88;8.68;;;28.40;87.10;;;;;;5013662;28;20118;-82
2022/07/21 10:40:24;;;;;;;17.95;7.43;;;28.80;87.60;;;;;;5013736;28;20030;-83
2022/07/21 10:42:59;;;;;;;10.85;6.72;;;29.20;86.10;;;;;;5012923;28;20449;-81
2022/07/21 10:45:33;;;;;;;20.70;6.82;;;29.60;83.80;;;;;;5013496;28;20026;-84
2022/07/21 10:48:00;;;;;;;8.93;6.45;;;29.50;82.30;;;;;;5013664;28;20113;-82
2022/07/21 10:50:41;;;;;;;7.85;6.75;;;29.50;87.10;;;;;;5001067;28;20034;-81
2022/07/21 10:53:15;;;;;;;16.10;6.30;;;29.70;83.50;;;;;;4990165;28;20030;-82
2022/07/21 10:55:52;;;;;;;7.15;6.43;;;30.00;83.00;;;;;;4973069;28;20037;-81
2022/07/21 10:58:26;;;;;;;9.30;6.47;;;29.80;83.20;;;;;;4987622;28;20113;-83
2022/07/21 11:01:02;;;;;;;11.60;6.95;;;29.60;85.90;;;;;;4989520;28;20035;-82
2022/07/21 11:03:38;;;;;;;8.55;6.15;;;29.40;81.80;;;;;;4989350;28;20042;-82
2022/07/21 11:06:14;;;;;;;10.05;6.10;;;29.60;84.50;;;;;;4987749;28;20092;-84
2022/07/21 11:08:52;;;;;;;12.70;6.00;;;29.80;84.30;;;;;;4988710;28;20113;-82
2022/07/21 11:11:25;;;;;;;31.52;5.85;;;29.50;79.40;;;;;;4971815;28;20493;-83
2022/07/21 11:14:13;;;;;;;11.65;6.03;;;29.50;80.00;;;;;;4987244;28;20386;-83
2022/07/21 11:16:42;;;;;;;11.25;5.95;;;29.40;80.30;;;;;;4990719;28;20026;-84
2022/07/21 11:19:46;;;;;;;6.03;5.35;;;29.90;80.80;;;;;;4989249;28;20034;-81
2022/07/21 11:22:15;;;;;;;8.35;5.35;;;30.90;79.40;;;;;;4988605;28;20030;-84
2022/07/21 11:24:43;;;;;;;8.68;5.50;;;31.50;79.30;;;;;;4971599;28;20034;-83
2022/07/21 11:27:30;;;;;;;20.48;6.40;;;31.60;80.60;;;;;;4990048;28;20037;-82
2022/07/21 11:29:59;;;;;;;31.45;7.82;;;31.10;76.20;;;;;;5001878;28;20390;-83
2022/07/21 11:32:26;;;;;;;19.75;6.72;;;31.60;77.90;;;;;;4997721;28;20109;-85
2022/07/21 11:34:53;;;;;;;6.28;5.28;;;31.90;76.50;;;;;;4999380;28;20042;-82
2022/07/21 11:37:33;;;;;;;15.38;5.65;;;31.60;74.30;;;;;;4994323;28;20052;-85
2022/07/21 11:40:18;;;;;;;13.35;5.90;;;31.60;76.60;;;;;;4992263;28;20097;-85
2022/07/21 11:42:46;;;;;;;13.18;6.05;;;32.10;75.10;;;;;;4986740;28;20042;-83
2022/07/21 11:45:13;;;;;;;6.43;5.53;;;31.80;77.50;;;;;;4988493;28;20034;-83
2022/07/21 11:47:39;;;;;;;10.88;6.03;;;31.60;75.20;;;;;;4972197;28;20044;-82
2022/07/21 11:50:07;;;;;;;6.20;5.13;;;31.50;78.50;;;;;;4987734;28;20026;-84
2022/07/21 11:52:38;;;;;;;6.68;6.05;;;32.00;77.30;;;;;;4990006;28;20021;-84
2022/07/21 11:55:07;;;;;;;9.65;5.97;;;32.50;73.80;;;;;;4986310;28;21728;-83
2022/07/21 11:57:34;;;;;;;8.73;6.20;;;32.30;74.20;;;;;;4985627;28;20138;-84
2022/07/21 12:00:00;;;;;;;6.53;5.40;;;32.30;73.60;;;;;;4986971;28;20180;-82
2022/07/21 12:02:28;;;;;;;8.30;6.25;;;32.00;75.10;;;;;;4987497;28;20542;-85
2022/07/21 12:04:59;;;;;;;10.75;6.30;;;31.60;75.80;;;;;;4990725;28;20064;-83
2022/07/21 12:07:36;;;;;;;11.52;7.15;;;31.70;76.50;;;;;;4990779;28;20042;-83
2022/07/21 12:10:06;;;;;;;17.55;7.00;;;31.50;75.00;;;;;;4989455;28;20037;-84
2022/07/21 12:12:37;;;;;;;12.45;7.30;;;31.00;77.30;;;;;;4989722;28;20034;-83
2022/07/21 12:15:16;;;;;;;8.57;6.57;;;32.00;78.90;;;;;;4986673;28;20034;-83
2022/07/21 12:18:02;;;;;;;10.95;6.00;;;33.10;72.80;;;;;;4983352;28;20157;-84
2022/07/21 12:20:29;;;;;;;11.85;6.07;;;33.20;73.00;;;;;;4971313;28;20042;-84
2022/07/21 12:22:56;;;;;;;25.85;6.45;;;32.70;72.60;;;;;;4975155;28;20052;-82
2022/07/21 12:25:37;;;;;;;57.13;8.57;;;32.40;74.90;;;;;;4992455;28;20551;-83
2022/07/21 12:28:04;;;;;;;29.58;6.60;;;31.50;74.30;;;;;;4994590;28;20128;-83
2022/07/21 12:30:44;;;;;;;11.88;6.38;;;31.00;74.90;;;;;;4972690;28;20478;-84
2022/07/21 12:33:14;;;;;;;8.25;6.10;;;30.20;77.00;;;;;;4992834;28;20823;-84
2022/07/21 12:36:03;;;;;;;10.00;6.22;;;30.40;78.90;;;;;;4993910;28;20022;-82
2022/07/21 12:38:45;;;;;;;9.73;6.40;;;29.70;78.50;;;;;;5011529;28;20049;-83
2022/07/21 12:41:14;;;;;;;14.43;6.95;;;29.40;80.10;;;;;;5010993;28;20028;-82
2022/07/21 12:43:41;;;;;;;10.45;6.72;;;29.30;80.00;;;;;;5011289;28;20026;-82
2022/07/21 12:46:09;;;;;;;13.60;6.95;;;29.20;80.40;;;;;;5011052;28;20056;-84
2022/07/21 12:48:36;;;;;;;11.82;7.00;;;29.30;79.60;;;;;;5011187;28;20510;-82
2022/07/21 12:51:19;;;;;;;33.75;8.57;;;29.50;80.20;;;;;;5010860;28;20080;-82
2022/07/21 12:53:50;;;;;;;14.90;6.75;;;29.40;80.40;;;;;;4993312;28;20025;-82
2022/07/21 12:56:20;;;;;;;16.38;7.13;;;29.50;80.50;;;;;;4993097;28;20046;-83
2022/07/21 12:58:47;;;;;;;17.05;6.90;;;29.20;79.10;;;;;;5011119;28;20029;-82